sensor_id;sensor_type;location;lat;lon;timestamp;P1;durP1;ratioP1;P2;durP2;ratioP2
53646;SDS011;39550;52.230;5.194;2023-08-06T00:00:14;6.63;;;5.40;;
53646;SDS011;39550;52.230;5.194;2023-08-06T00:02:40;7.30;;;4.80;;
53646;SDS011;39550;52.230;5.194;2023-08-06T00:05:05;7.05;;;5.30;;
53646;SDS011;39550;52.230;5.194;2023-08-06T00:07:32;8.27;;;6.18;;
53646;SDS011;39550;52.230;5.194;2023-08-06T00:09:57;6.53;;;5.30;;
53646;SDS011;39550;52.230;5.194;2023-08-06T00:12:23;7.50;;;5.38;;
53646;SDS011;39550;52.230;5.194;2023-08-06T00:14:50;6.72;;;5.32;;
53646;SDS011;39550;52.230;5.194;2023-08-06T00:17:16;7.65;;;5.65;;
53646;SDS011;39550;52.230;5.194;2023-08-06T00:19:43;7.95;;;5.25;;
53646;SDS011;39550;52.230;5.194;2023-08-06T00:22:09;6.95;;;5.38;;
53646;SDS011;39550;52.230;5.194;2023-08-06T00:24:34;6.97;;;5.18;;
53646;SDS011;39550;52.230;5.194;2023-08-06T00:27:01;5.88;;;4.63;;
53646;SDS011;39550;52.230;5.194;2023-08-06T00:29:27;6.65;;;5.53;;
53646;SDS011;39550;52.230;5.194;2023-08-06T00:31:53;7.25;;;4.95;;
53646;SDS011;39550;52.230;5.194;2023-08-06T00:34:19;7.22;;;5.40;;
53646;SDS011;39550;52.230;5.194;2023-08-06T00:36:44;6.53;;;5.40;;
53646;SDS011;39550;52.230;5.194;2023-08-06T00:39:09;6.95;;;5.32;;
53646;SDS011;39550;52.230;5.194;2023-08-06T00:41:36;7.60;;;5.65;;
53646;SDS011;39550;52.230;5.194;2023-08-06T00:44:01;8.30;;;5.88;;
53646;SDS011;39550;52.230;5.194;2023-08-06T00:46:27;9.02;;;6.35;;
53646;SDS011;39550;52.230;5.194;2023-08-06T00:48:53;7.70;;;5.88;;
53646;SDS011;39550;52.230;5.194;2023-08-06T00:51:19;8.10;;;5.97;;
53646;SDS011;39550;52.230;5.194;2023-08-06T00:53:45;7.80;;;5.47;;
53646;SDS011;39550;52.230;5.194;2023-08-06T00:56:11;7.05;;;5.63;;
53646;SDS011;39550;52.230;5.194;2023-08-06T00:58:38;7.97;;;6.07;;
53646;SDS011;39550;52.230;5.194;2023-08-06T01:01:04;6.68;;;5.22;;
53646;SDS011;39550;52.230;5.194;2023-08-06T01:03:29;7.25;;;5.78;;
53646;SDS011;39550;52.230;5.194;2023-08-06T01:05:54;7.95;;;5.95;;
53646;SDS011;39550;52.230;5.194;2023-08-06T01:13:50;7.63;;;5.95;;
53646;SDS011;39550;52.230;5.194;2023-08-06T01:16:23;7.10;;;5.60;;
53646;SDS011;39550;52.230;5.194;2023-08-06T01:18:49;8.02;;;5.78;;
53646;SDS011;39550;52.230;5.194;2023-08-06T01:21:18;8.00;;;5.45;;
53646;SDS011;39550;52.230;5.194;2023-08-06T01:23:44;7.07;;;5.78;;
53646;SDS011;39550;52.230;5.194;2023-08-06T01:28:49;7.28;;;5.95;;
53646;SDS011;39550;52.230;5.194;2023-08-06T01:31:41;7.63;;;5.53;;
53646;SDS011;39550;52.230;5.194;2023-08-06T01:34:09;7.53;;;5.70;;
53646;SDS011;39550;52.230;5.194;2023-08-06T01:36:38;7.03;;;5.57;;
53646;SDS011;39550;52.230;5.194;2023-08-06T01:39:05;6.30;;;4.95;;
53646;SDS011;39550;52.230;5.194;2023-08-06T01:41:31;7.32;;;5.32;;
53646;SDS011;39550;52.230;5.194;2023-08-06T01:43:56;7.65;;;5.40;;
53646;SDS011;39550;52.230;5.194;2023-08-06T01:46:22;6.63;;;5.03;;
53646;SDS011;39550;52.230;5.194;2023-08-06T01:48:47;8.55;;;5.45;;
53646;SDS011;39550;52.230;5.194;2023-08-06T01:51:13;7.35;;;5.35;;
53646;SDS011;39550;52.230;5.194;2023-08-06T01:53:38;7.50;;;5.65;;
53646;SDS011;39550;52.230;5.194;2023-08-06T01:56:03;8.18;;;5.70;;
53646;SDS011;39550;52.230;5.194;2023-08-06T01:58:29;6.70;;;5.32;;
53646;SDS011;39550;52.230;5.194;2023-08-06T02:00:54;7.55;;;5.38;;
53646;SDS011;39550;52.230;5.194;2023-08-06T02:03:19;7.93;;;5.50;;
53646;SDS011;39550;52.230;5.194;2023-08-06T02:05:46;7.43;;;5.20;;
53646;SDS011;39550;52.230;5.194;2023-08-06T02:08:12;7.53;;;5.57;;
53646;SDS011;39550;52.230;5.194;2023-08-06T02:10:37;6.78;;;5.15;;
53646;SDS011;39550;52.230;5.194;2023-08-06T02:13:02;7.57;;;5.35;;
53646;SDS011;39550;52.230;5.194;2023-08-06T02:15:28;7.38;;;5.63;;
53646;SDS011;39550;52.230;5.194;2023-08-06T02:17:53;7.13;;;5.32;;
53646;SDS011;39550;52.230;5.194;2023-08-06T02:20:18;7.32;;;5.65;;
53646;SDS011;39550;52.230;5.194;2023-08-06T02:22:44;7.50;;;5.57;;
53646;SDS011;39550;52.230;5.194;2023-08-06T02:25:09;7.75;;;5.30;;
53646;SDS011;39550;52.230;5.194;2023-08-06T02:27:34;7.70;;;5.88;;
53646;SDS011;39550;52.230;5.194;2023-08-06T02:30:02;8.73;;;5.93;;
53646;SDS011;39550;52.230;5.194;2023-08-06T02:32:28;7.43;;;5.43;;
53646;SDS011;39550;52.230;5.194;2023-08-06T02:34:56;7.47;;;5.40;;
53646;SDS011;39550;52.230;5.194;2023-08-06T02:37:22;7.30;;;5.65;;
53646;SDS011;39550;52.230;5.194;2023-08-06T02:39:47;7.47;;;5.65;;
53646;SDS011;39550;52.230;5.194;2023-08-06T02:42:12;7.35;;;5.47;;
53646;SDS011;39550;52.230;5.194;2023-08-06T02:44:39;7.53;;;5.45;;
53646;SDS011;39550;52.230;5.194;2023-08-06T02:47:05;7.03;;;5.45;;
53646;SDS011;39550;52.230;5.194;2023-08-06T02:49:31;6.57;;;5.40;;
53646;SDS011;39550;52.230;5.194;2023-08-06T02:51:56;7.32;;;5.93;;
53646;SDS011;39550;52.230;5.194;2023-08-06T02:54:21;7.90;;;5.90;;
53646;SDS011;39550;52.230;5.194;2023-08-06T02:56:47;7.53;;;5.80;;
53646;SDS011;39550;52.230;5.194;2023-08-06T02:59:12;7.70;;;5.97;;
53646;SDS011;39550;52.230;5.194;2023-08-06T03:01:38;8.43;;;6.07;;
53646;SDS011;39550;52.230;5.194;2023-08-06T03:04:04;8.68;;;6.25;;
53646;SDS011;39550;52.230;5.194;2023-08-06T03:06:30;6.97;;;5.43;;
53646;SDS011;39550;52.230;5.194;2023-08-06T03:08:56;8.00;;;5.90;;
53646;SDS011;39550;52.230;5.194;2023-08-06T03:11:21;8.13;;;6.00;;
53646;SDS011;39550;52.230;5.194;2023-08-06T03:13:47;10.40;;;6.35;;
53646;SDS011;39550;52.230;5.194;2023-08-06T03:16:14;7.70;;;5.82;;
53646;SDS011;39550;52.230;5.194;2023-08-06T03:18:39;7.63;;;5.97;;
53646;SDS011;39550;52.230;5.194;2023-08-06T03:21:05;8.07;;;5.93;;
53646;SDS011;39550;52.230;5.194;2023-08-06T03:23:32;8.85;;;6.32;;
53646;SDS011;39550;52.230;5.194;2023-08-06T03:26:03;9.52;;;6.88;;
53646;SDS011;39550;52.230;5.194;2023-08-06T03:28:29;8.05;;;6.20;;
53646;SDS011;39550;52.230;5.194;2023-08-06T03:30:59;9.07;;;7.22;;
53646;SDS011;39550;52.230;5.194;2023-08-06T03:33:25;8.82;;;6.22;;
53646;SDS011;39550;52.230;5.194;2023-08-06T03:35:51;7.82;;;5.93;;
53646;SDS011;39550;52.230;5.194;2023-08-06T03:38:16;8.38;;;6.35;;
53646;SDS011;39550;52.230;5.194;2023-08-06T03:40:41;9.02;;;6.38;;
53646;SDS011;39550;52.230;5.194;2023-08-06T03:43:07;8.90;;;6.90;;
53646;SDS011;39550;52.230;5.194;2023-08-06T03:45:32;8.63;;;6.78;;
53646;SDS011;39550;52.230;5.194;2023-08-06T03:47:58;7.65;;;6.32;;
53646;SDS011;39550;52.230;5.194;2023-08-06T03:50:23;9.55;;;6.95;;
53646;SDS011;39550;52.230;5.194;2023-08-06T03:52:48;8.48;;;6.43;;
53646;SDS011;39550;52.230;5.194;2023-08-06T03:55:14;8.32;;;6.32;;
53646;SDS011;39550;52.230;5.194;2023-08-06T03:57:39;8.85;;;6.32;;
53646;SDS011;39550;52.230;5.194;2023-08-06T04:00:04;8.23;;;6.18;;
53646;SDS011;39550;52.230;5.194;2023-08-06T04:02:30;8.82;;;6.70;;
53646;SDS011;39550;52.230;5.194;2023-08-06T04:04:55;8.75;;;6.43;;
53646;SDS011;39550;52.230;5.194;2023-08-06T04:07:21;9.63;;;6.20;;
53646;SDS011;39550;52.230;5.194;2023-08-06T04:12:19;7.47;;;5.63;;
53646;SDS011;39550;52.230;5.194;2023-08-06T04:14:44;8.35;;;6.10;;
53646;SDS011;39550;52.230;5.194;2023-08-06T04:17:09;8.25;;;6.30;;
53646;SDS011;39550;52.230;5.194;2023-08-06T04:19:35;7.90;;;6.35;;
53646;SDS011;39550;52.230;5.194;2023-08-06T04:22:00;8.48;;;6.28;;
53646;SDS011;39550;52.230;5.194;2023-08-06T04:24:27;7.78;;;5.80;;
53646;SDS011;39550;52.230;5.194;2023-08-06T04:26:52;8.00;;;6.50;;
53646;SDS011;39550;52.230;5.194;2023-08-06T04:29:18;8.35;;;5.97;;
53646;SDS011;39550;52.230;5.194;2023-08-06T04:31:43;7.63;;;6.00;;
53646;SDS011;39550;52.230;5.194;2023-08-06T04:34:09;9.05;;;6.75;;
53646;SDS011;39550;52.230;5.194;2023-08-06T04:36:34;9.32;;;6.70;;
53646;SDS011;39550;52.230;5.194;2023-08-06T04:38:59;9.35;;;7.15;;
53646;SDS011;39550;52.230;5.194;2023-08-06T04:41:25;7.93;;;6.22;;
53646;SDS011;39550;52.230;5.194;2023-08-06T04:43:50;9.15;;;6.85;;
53646;SDS011;39550;52.230;5.194;2023-08-06T04:46:15;8.50;;;6.32;;
53646;SDS011;39550;52.230;5.194;2023-08-06T04:48:41;8.88;;;6.50;;
53646;SDS011;39550;52.230;5.194;2023-08-06T04:51:06;10.07;;;7.47;;
53646;SDS011;39550;52.230;5.194;2023-08-06T04:53:33;9.07;;;6.72;;
53646;SDS011;39550;52.230;5.194;2023-08-06T04:55:58;10.43;;;7.85;;
53646;SDS011;39550;52.230;5.194;2023-08-06T04:58:24;10.13;;;7.95;;
53646;SDS011;39550;52.230;5.194;2023-08-06T05:00:49;10.77;;;8.57;;
53646;SDS011;39550;52.230;5.194;2023-08-06T05:03:15;9.85;;;8.00;;
53646;SDS011;39550;52.230;5.194;2023-08-06T05:05:40;10.73;;;8.43;;
53646;SDS011;39550;52.230;5.194;2023-08-06T05:10:44;13.02;;;9.43;;
53646;SDS011;39550;52.230;5.194;2023-08-06T05:13:09;10.55;;;7.75;;
53646;SDS011;39550;52.230;5.194;2023-08-06T05:15:35;10.43;;;8.43;;
53646;SDS011;39550;52.230;5.194;2023-08-06T05:18:00;11.52;;;9.23;;
53646;SDS011;39550;52.230;5.194;2023-08-06T05:20:26;9.90;;;8.10;;
53646;SDS011;39550;52.230;5.194;2023-08-06T05:22:51;10.20;;;8.25;;
53646;SDS011;39550;52.230;5.194;2023-08-06T05:25:16;11.32;;;7.90;;
53646;SDS011;39550;52.230;5.194;2023-08-06T05:27:42;11.35;;;8.70;;
53646;SDS011;39550;52.230;5.194;2023-08-06T05:30:07;10.57;;;8.73;;
53646;SDS011;39550;52.230;5.194;2023-08-06T05:32:33;9.70;;;7.90;;
53646;SDS011;39550;52.230;5.194;2023-08-06T05:34:59;10.32;;;8.10;;
53646;SDS011;39550;52.230;5.194;2023-08-06T05:37:24;10.10;;;8.00;;
53646;SDS011;39550;52.230;5.194;2023-08-06T05:39:49;8.82;;;7.30;;
53646;SDS011;39550;52.230;5.194;2023-08-06T05:42:15;10.07;;;8.35;;
53646;SDS011;39550;52.230;5.194;2023-08-06T05:44:41;9.82;;;7.57;;
53646;SDS011;39550;52.230;5.194;2023-08-06T05:47:06;9.13;;;7.65;;
53646;SDS011;39550;52.230;5.194;2023-08-06T05:49:31;10.15;;;8.30;;
53646;SDS011;39550;52.230;5.194;2023-08-06T05:51:57;8.90;;;7.05;;
53646;SDS011;39550;52.230;5.194;2023-08-06T05:54:22;13.32;;;8.93;;
53646;SDS011;39550;52.230;5.194;2023-08-06T05:56:47;9.98;;;7.70;;
53646;SDS011;39550;52.230;5.194;2023-08-06T05:59:13;9.82;;;7.75;;
53646;SDS011;39550;52.230;5.194;2023-08-06T06:01:38;9.65;;;7.75;;
53646;SDS011;39550;52.230;5.194;2023-08-06T06:04:03;9.80;;;7.90;;
53646;SDS011;39550;52.230;5.194;2023-08-06T06:06:29;8.68;;;7.30;;
53646;SDS011;39550;52.230;5.194;2023-08-06T06:08:54;10.02;;;7.63;;
53646;SDS011;39550;52.230;5.194;2023-08-06T06:11:19;9.48;;;7.90;;
53646;SDS011;39550;52.230;5.194;2023-08-06T06:13:47;8.73;;;6.57;;
53646;SDS011;39550;52.230;5.194;2023-08-06T06:16:14;7.90;;;5.95;;
53646;SDS011;39550;52.230;5.194;2023-08-06T06:18:39;6.50;;;4.63;;
53646;SDS011;39550;52.230;5.194;2023-08-06T06:21:05;5.90;;;4.18;;
53646;SDS011;39550;52.230;5.194;2023-08-06T06:23:30;6.57;;;5.07;;
53646;SDS011;39550;52.230;5.194;2023-08-06T06:25:55;6.35;;;4.60;;
53646;SDS011;39550;52.230;5.194;2023-08-06T06:28:21;6.45;;;4.72;;
53646;SDS011;39550;52.230;5.194;2023-08-06T06:30:46;5.82;;;3.95;;
53646;SDS011;39550;52.230;5.194;2023-08-06T06:33:14;5.68;;;3.90;;
53646;SDS011;39550;52.230;5.194;2023-08-06T06:35:39;5.43;;;3.22;;
53646;SDS011;39550;52.230;5.194;2023-08-06T06:38:04;5.30;;;3.42;;
53646;SDS011;39550;52.230;5.194;2023-08-06T06:40:30;6.53;;;3.47;;
53646;SDS011;39550;52.230;5.194;2023-08-06T06:42:55;5.03;;;2.97;;
53646;SDS011;39550;52.230;5.194;2023-08-06T06:45:20;5.25;;;3.30;;
53646;SDS011;39550;52.230;5.194;2023-08-06T06:47:46;8.55;;;3.35;;
53646;SDS011;39550;52.230;5.194;2023-08-06T06:50:12;6.47;;;3.05;;
53646;SDS011;39550;52.230;5.194;2023-08-06T06:52:38;7.20;;;3.55;;
53646;SDS011;39550;52.230;5.194;2023-08-06T06:55:03;10.00;;;3.60;;
53646;SDS011;39550;52.230;5.194;2023-08-06T06:57:29;6.10;;;3.03;;
53646;SDS011;39550;52.230;5.194;2023-08-06T06:59:55;6.43;;;3.40;;
53646;SDS011;39550;52.230;5.194;2023-08-06T07:02:20;7.65;;;3.30;;
53646;SDS011;39550;52.230;5.194;2023-08-06T07:04:45;8.52;;;3.25;;
53646;SDS011;39550;52.230;5.194;2023-08-06T07:07:11;8.15;;;3.35;;
53646;SDS011;39550;52.230;5.194;2023-08-06T07:09:36;5.47;;;3.05;;
53646;SDS011;39550;52.230;5.194;2023-08-06T07:12:01;6.30;;;3.30;;
53646;SDS011;39550;52.230;5.194;2023-08-06T07:14:28;8.10;;;3.33;;
53646;SDS011;39550;52.230;5.194;2023-08-06T07:16:53;5.53;;;2.88;;
53646;SDS011;39550;52.230;5.194;2023-08-06T07:19:19;5.85;;;3.03;;
53646;SDS011;39550;52.230;5.194;2023-08-06T07:21:44;5.68;;;3.10;;
53646;SDS011;39550;52.230;5.194;2023-08-06T07:24:10;5.30;;;3.22;;
53646;SDS011;39550;52.230;5.194;2023-08-06T07:26:35;6.03;;;2.90;;
53646;SDS011;39550;52.230;5.194;2023-08-06T07:29:00;6.93;;;3.15;;
53646;SDS011;39550;52.230;5.194;2023-08-06T07:31:26;5.72;;;2.95;;
53646;SDS011;39550;52.230;5.194;2023-08-06T07:33:51;4.50;;;3.15;;
53646;SDS011;39550;52.230;5.194;2023-08-06T07:36:17;5.03;;;2.72;;
53646;SDS011;39550;52.230;5.194;2023-08-06T07:38:43;7.07;;;2.80;;
53646;SDS011;39550;52.230;5.194;2023-08-06T07:41:08;6.15;;;3.03;;
53646;SDS011;39550;52.230;5.194;2023-08-06T07:43:37;4.85;;;3.00;;
53646;SDS011;39550;52.230;5.194;2023-08-06T07:46:02;4.57;;;2.67;;
53646;SDS011;39550;52.230;5.194;2023-08-06T07:48:28;5.20;;;2.90;;
53646;SDS011;39550;52.230;5.194;2023-08-06T07:50:54;6.72;;;2.85;;
53646;SDS011;39550;52.230;5.194;2023-08-06T07:53:20;4.50;;;2.90;;
53646;SDS011;39550;52.230;5.194;2023-08-06T07:55:52;6.07;;;3.20;;
53646;SDS011;39550;52.230;5.194;2023-08-06T07:58:19;5.40;;;3.03;;
53646;SDS011;39550;52.230;5.194;2023-08-06T08:00:45;5.50;;;2.80;;
53646;SDS011;39550;52.230;5.194;2023-08-06T08:03:14;4.97;;;2.85;;
53646;SDS011;39550;52.230;5.194;2023-08-06T08:05:41;4.07;;;2.70;;
53646;SDS011;39550;52.230;5.194;2023-08-06T08:08:10;5.18;;;3.22;;
53646;SDS011;39550;52.230;5.194;2023-08-06T08:10:35;4.57;;;2.78;;
53646;SDS011;39550;52.230;5.194;2023-08-06T08:13:02;5.43;;;2.80;;
53646;SDS011;39550;52.230;5.194;2023-08-06T08:15:29;4.65;;;2.88;;
53646;SDS011;39550;52.230;5.194;2023-08-06T08:17:55;4.28;;;2.97;;
53646;SDS011;39550;52.230;5.194;2023-08-06T08:20:21;4.78;;;2.70;;
53646;SDS011;39550;52.230;5.194;2023-08-06T08:22:52;4.45;;;3.08;;
53646;SDS011;39550;52.230;5.194;2023-08-06T08:25:17;5.18;;;3.03;;
53646;SDS011;39550;52.230;5.194;2023-08-06T08:27:43;5.15;;;3.22;;
53646;SDS011;39550;52.230;5.194;2023-08-06T08:30:08;5.25;;;3.00;;
53646;SDS011;39550;52.230;5.194;2023-08-06T08:32:34;6.10;;;3.20;;
53646;SDS011;39550;52.230;5.194;2023-08-06T08:34:59;5.28;;;2.95;;
53646;SDS011;39550;52.230;5.194;2023-08-06T08:37:24;4.82;;;3.10;;
53646;SDS011;39550;52.230;5.194;2023-08-06T08:39:50;4.63;;;2.90;;
53646;SDS011;39550;52.230;5.194;2023-08-06T08:42:16;5.65;;;3.05;;
53646;SDS011;39550;52.230;5.194;2023-08-06T08:44:42;4.38;;;2.78;;
53646;SDS011;39550;52.230;5.194;2023-08-06T08:47:11;5.10;;;2.75;;
53646;SDS011;39550;52.230;5.194;2023-08-06T08:49:45;5.13;;;2.78;;
53646;SDS011;39550;52.230;5.194;2023-08-06T08:52:12;4.95;;;2.83;;
53646;SDS011;39550;52.230;5.194;2023-08-06T08:54:42;4.68;;;3.17;;
53646;SDS011;39550;52.230;5.194;2023-08-06T08:57:14;5.47;;;3.35;;
53646;SDS011;39550;52.230;5.194;2023-08-06T08:59:39;4.80;;;2.92;;
53646;SDS011;39550;52.230;5.194;2023-08-06T09:02:05;4.88;;;3.38;;
53646;SDS011;39550;52.230;5.194;2023-08-06T09:04:33;5.70;;;3.20;;
53646;SDS011;39550;52.230;5.194;2023-08-06T09:07:00;5.03;;;2.95;;
53646;SDS011;39550;52.230;5.194;2023-08-06T09:12:52;4.93;;;3.22;;
53646;SDS011;39550;52.230;5.194;2023-08-06T09:17:54;5.80;;;3.20;;
53646;SDS011;39550;52.230;5.194;2023-08-06T09:20:20;5.40;;;2.88;;
53646;SDS011;39550;52.230;5.194;2023-08-06T09:22:46;4.47;;;2.95;;
53646;SDS011;39550;52.230;5.194;2023-08-06T09:25:14;4.50;;;3.30;;
53646;SDS011;39550;52.230;5.194;2023-08-06T09:27:46;4.53;;;3.03;;
53646;SDS011;39550;52.230;5.194;2023-08-06T09:30:12;4.80;;;3.38;;
53646;SDS011;39550;52.230;5.194;2023-08-06T09:32:59;5.13;;;3.13;;
53646;SDS011;39550;52.230;5.194;2023-08-06T09:35:28;4.38;;;2.97;;
53646;SDS011;39550;52.230;5.194;2023-08-06T09:37:54;5.38;;;3.42;;
53646;SDS011;39550;52.230;5.194;2023-08-06T09:40:32;5.50;;;3.30;;
53646;SDS011;39550;52.230;5.194;2023-08-06T09:43:01;6.38;;;3.65;;
53646;SDS011;39550;52.230;5.194;2023-08-06T09:45:30;5.43;;;3.60;;
53646;SDS011;39550;52.230;5.194;2023-08-06T09:47:58;5.50;;;3.53;;
53646;SDS011;39550;52.230;5.194;2023-08-06T09:50:28;5.60;;;3.50;;
53646;SDS011;39550;52.230;5.194;2023-08-06T09:53:03;5.32;;;3.20;;
53646;SDS011;39550;52.230;5.194;2023-08-06T09:55:33;6.40;;;3.80;;
53646;SDS011;39550;52.230;5.194;2023-08-06T09:58:08;5.68;;;3.83;;
53646;SDS011;39550;52.230;5.194;2023-08-06T10:03:22;4.93;;;3.42;;
53646;SDS011;39550;52.230;5.194;2023-08-06T10:06:00;6.00;;;3.40;;
53646;SDS011;39550;52.230;5.194;2023-08-06T10:08:27;5.22;;;3.83;;
53646;SDS011;39550;52.230;5.194;2023-08-06T10:10:53;6.40;;;4.00;;
53646;SDS011;39550;52.230;5.194;2023-08-06T10:13:18;6.00;;;3.85;;
53646;SDS011;39550;52.230;5.194;2023-08-06T10:15:48;5.20;;;3.30;;
53646;SDS011;39550;52.230;5.194;2023-08-06T10:18:20;4.85;;;3.50;;
53646;SDS011;39550;52.230;5.194;2023-08-06T10:20:50;5.03;;;3.50;;
53646;SDS011;39550;52.230;5.194;2023-08-06T10:23:17;4.95;;;3.45;;
53646;SDS011;39550;52.230;5.194;2023-08-06T10:25:45;5.72;;;3.40;;
53646;SDS011;39550;52.230;5.194;2023-08-06T10:28:21;7.20;;;3.92;;
53646;SDS011;39550;52.230;5.194;2023-08-06T10:30:59;6.95;;;4.35;;
53646;SDS011;39550;52.230;5.194;2023-08-06T10:33:27;6.03;;;4.05;;
53646;SDS011;39550;52.230;5.194;2023-08-06T10:36:09;4.60;;;3.50;;
53646;SDS011;39550;52.230;5.194;2023-08-06T10:38:36;5.45;;;3.80;;
53646;SDS011;39550;52.230;5.194;2023-08-06T10:41:15;7.88;;;3.78;;
53646;SDS011;39550;52.230;5.194;2023-08-06T10:43:47;5.68;;;3.95;;
53646;SDS011;39550;52.230;5.194;2023-08-06T10:46:28;5.93;;;3.67;;
53646;SDS011;39550;52.230;5.194;2023-08-06T10:48:54;6.20;;;3.63;;
53646;SDS011;39550;52.230;5.194;2023-08-06T10:51:28;6.32;;;4.18;;
53646;SDS011;39550;52.230;5.194;2023-08-06T10:54:11;6.43;;;3.90;;
53646;SDS011;39550;52.230;5.194;2023-08-06T10:56:39;5.72;;;3.95;;
53646;SDS011;39550;52.230;5.194;2023-08-06T10:59:06;5.20;;;3.37;;
53646;SDS011;39550;52.230;5.194;2023-08-06T11:01:31;6.25;;;3.47;;
53646;SDS011;39550;52.230;5.194;2023-08-06T11:04:01;6.47;;;3.40;;
53646;SDS011;39550;52.230;5.194;2023-08-06T11:06:27;5.53;;;3.58;;
53646;SDS011;39550;52.230;5.194;2023-08-06T11:08:53;4.78;;;3.30;;
53646;SDS011;39550;52.230;5.194;2023-08-06T11:11:20;5.40;;;3.42;;
53646;SDS011;39550;52.230;5.194;2023-08-06T11:13:48;6.45;;;3.55;;
53646;SDS011;39550;52.230;5.194;2023-08-06T11:18:55;5.80;;;3.55;;
53646;SDS011;39550;52.230;5.194;2023-08-06T11:21:21;5.93;;;3.40;;
53646;SDS011;39550;52.230;5.194;2023-08-06T11:23:48;5.88;;;3.50;;
53646;SDS011;39550;52.230;5.194;2023-08-06T11:26:18;5.43;;;3.10;;
53646;SDS011;39550;52.230;5.194;2023-08-06T11:28:48;5.88;;;3.45;;
53646;SDS011;39550;52.230;5.194;2023-08-06T11:31:20;6.40;;;3.67;;
53646;SDS011;39550;52.230;5.194;2023-08-06T11:33:52;5.55;;;3.40;;
53646;SDS011;39550;52.230;5.194;2023-08-06T11:36:28;6.45;;;3.50;;
53646;SDS011;39550;52.230;5.194;2023-08-06T11:38:58;5.50;;;3.30;;
53646;SDS011;39550;52.230;5.194;2023-08-06T11:41:28;4.82;;;3.20;;
53646;SDS011;39550;52.230;5.194;2023-08-06T11:43:54;7.03;;;4.00;;
53646;SDS011;39550;52.230;5.194;2023-08-06T11:46:19;5.00;;;3.13;;
53646;SDS011;39550;52.230;5.194;2023-08-06T11:48:55;6.80;;;3.58;;
53646;SDS011;39550;52.230;5.194;2023-08-06T11:51:28;4.75;;;3.08;;
53646;SDS011;39550;52.230;5.194;2023-08-06T11:53:59;6.43;;;3.30;;
53646;SDS011;39550;52.230;5.194;2023-08-06T11:56:25;5.15;;;3.05;;
53646;SDS011;39550;52.230;5.194;2023-08-06T11:58:52;4.63;;;3.15;;
53646;SDS011;39550;52.230;5.194;2023-08-06T12:01:19;6.55;;;3.30;;
53646;SDS011;39550;52.230;5.194;2023-08-06T12:03:44;4.97;;;3.10;;
53646;SDS011;39550;52.230;5.194;2023-08-06T12:06:09;4.53;;;3.05;;
53646;SDS011;39550;52.230;5.194;2023-08-06T12:08:35;7.35;;;3.47;;
53646;SDS011;39550;52.230;5.194;2023-08-06T12:11:00;5.35;;;3.15;;
53646;SDS011;39550;52.230;5.194;2023-08-06T12:13:26;5.90;;;3.25;;
53646;SDS011;39550;52.230;5.194;2023-08-06T12:15:53;6.35;;;3.40;;
53646;SDS011;39550;52.230;5.194;2023-08-06T12:18:19;5.13;;;2.85;;
53646;SDS011;39550;52.230;5.194;2023-08-06T12:20:44;5.00;;;3.10;;
53646;SDS011;39550;52.230;5.194;2023-08-06T12:23:10;4.80;;;3.25;;
53646;SDS011;39550;52.230;5.194;2023-08-06T12:25:38;4.93;;;2.90;;
53646;SDS011;39550;52.230;5.194;2023-08-06T12:28:03;4.53;;;2.88;;
53646;SDS011;39550;52.230;5.194;2023-08-06T12:30:30;4.35;;;2.75;;
53646;SDS011;39550;52.230;5.194;2023-08-06T12:32:56;5.32;;;3.20;;
53646;SDS011;39550;52.230;5.194;2023-08-06T12:35:21;5.03;;;3.03;;
53646;SDS011;39550;52.230;5.194;2023-08-06T12:37:47;5.10;;;2.90;;
53646;SDS011;39550;52.230;5.194;2023-08-06T12:40:12;6.07;;;3.17;;
53646;SDS011;39550;52.230;5.194;2023-08-06T12:42:37;4.80;;;2.78;;
53646;SDS011;39550;52.230;5.194;2023-08-06T12:45:03;5.15;;;3.25;;
53646;SDS011;39550;52.230;5.194;2023-08-06T12:47:29;5.43;;;2.80;;
53646;SDS011;39550;52.230;5.194;2023-08-06T12:49:54;5.22;;;2.97;;
53646;SDS011;39550;52.230;5.194;2023-08-06T12:52:19;4.57;;;2.63;;
53646;SDS011;39550;52.230;5.194;2023-08-06T12:54:45;5.90;;;3.33;;
53646;SDS011;39550;52.230;5.194;2023-08-06T12:57:11;5.13;;;2.85;;
53646;SDS011;39550;52.230;5.194;2023-08-06T12:59:36;4.57;;;2.95;;
53646;SDS011;39550;52.230;5.194;2023-08-06T13:02:02;5.07;;;3.15;;
53646;SDS011;39550;52.230;5.194;2023-08-06T13:04:28;4.88;;;2.60;;
53646;SDS011;39550;52.230;5.194;2023-08-06T13:06:53;3.92;;;2.50;;
53646;SDS011;39550;52.230;5.194;2023-08-06T13:09:19;4.30;;;2.83;;
53646;SDS011;39550;52.230;5.194;2023-08-06T13:11:44;9.13;;;3.33;;
53646;SDS011;39550;52.230;5.194;2023-08-06T13:14:12;4.57;;;2.90;;
53646;SDS011;39550;52.230;5.194;2023-08-06T13:16:40;4.28;;;2.58;;
53646;SDS011;39550;52.230;5.194;2023-08-06T13:19:06;4.30;;;2.60;;
53646;SDS011;39550;52.230;5.194;2023-08-06T13:21:33;5.10;;;2.78;;
53646;SDS011;39550;52.230;5.194;2023-08-06T13:24:11;4.57;;;2.60;;
53646;SDS011;39550;52.230;5.194;2023-08-06T13:26:36;4.43;;;2.75;;
53646;SDS011;39550;52.230;5.194;2023-08-06T13:29:02;4.38;;;2.60;;
53646;SDS011;39550;52.230;5.194;2023-08-06T13:31:27;4.70;;;2.95;;
53646;SDS011;39550;52.230;5.194;2023-08-06T13:33:54;4.47;;;2.70;;
53646;SDS011;39550;52.230;5.194;2023-08-06T13:36:20;4.93;;;3.00;;
53646;SDS011;39550;52.230;5.194;2023-08-06T13:38:47;5.85;;;2.50;;
53646;SDS011;39550;52.230;5.194;2023-08-06T13:41:12;4.95;;;3.38;;
53646;SDS011;39550;52.230;5.194;2023-08-06T13:43:53;4.07;;;2.58;;
53646;SDS011;39550;52.230;5.194;2023-08-06T13:46:18;4.13;;;2.58;;
53646;SDS011;39550;52.230;5.194;2023-08-06T13:48:45;4.40;;;2.58;;
53646;SDS011;39550;52.230;5.194;2023-08-06T13:51:12;5.32;;;2.90;;
53646;SDS011;39550;52.230;5.194;2023-08-06T13:53:40;4.78;;;2.85;;
53646;SDS011;39550;52.230;5.194;2023-08-06T13:56:06;4.50;;;2.80;;
53646;SDS011;39550;52.230;5.194;2023-08-06T13:58:32;4.68;;;2.70;;
53646;SDS011;39550;52.230;5.194;2023-08-06T14:00:58;5.15;;;2.75;;
53646;SDS011;39550;52.230;5.194;2023-08-06T14:03:24;4.18;;;2.50;;
53646;SDS011;39550;52.230;5.194;2023-08-06T14:05:49;6.47;;;2.97;;
53646;SDS011;39550;52.230;5.194;2023-08-06T14:08:15;4.85;;;2.92;;
53646;SDS011;39550;52.230;5.194;2023-08-06T14:10:43;4.85;;;2.90;;
53646;SDS011;39550;52.230;5.194;2023-08-06T14:13:09;3.92;;;2.63;;
53646;SDS011;39550;52.230;5.194;2023-08-06T14:15:35;5.22;;;2.33;;
53646;SDS011;39550;52.230;5.194;2023-08-06T14:18:00;4.63;;;2.42;;
53646;SDS011;39550;52.230;5.194;2023-08-06T14:20:26;4.00;;;2.50;;
53646;SDS011;39550;52.230;5.194;2023-08-06T14:22:51;4.20;;;2.65;;
53646;SDS011;39550;52.230;5.194;2023-08-06T14:25:17;3.80;;;2.20;;
53646;SDS011;39550;52.230;5.194;2023-08-06T14:27:43;4.47;;;2.50;;
53646;SDS011;39550;52.230;5.194;2023-08-06T14:30:09;4.20;;;2.53;;
53646;SDS011;39550;52.230;5.194;2023-08-06T14:32:35;4.03;;;2.60;;
53646;SDS011;39550;52.230;5.194;2023-08-06T14:35:01;4.65;;;2.42;;
53646;SDS011;39550;52.230;5.194;2023-08-06T14:37:27;4.18;;;2.30;;
53646;SDS011;39550;52.230;5.194;2023-08-06T14:39:52;4.78;;;2.55;;
53646;SDS011;39550;52.230;5.194;2023-08-06T14:42:17;3.90;;;2.42;;
53646;SDS011;39550;52.230;5.194;2023-08-06T14:44:43;4.20;;;2.40;;
53646;SDS011;39550;52.230;5.194;2023-08-06T14:47:08;4.68;;;2.83;;
53646;SDS011;39550;52.230;5.194;2023-08-06T14:49:34;4.47;;;2.50;;
53646;SDS011;39550;52.230;5.194;2023-08-06T14:51:59;4.43;;;2.70;;
53646;SDS011;39550;52.230;5.194;2023-08-06T14:54:27;4.07;;;2.65;;
53646;SDS011;39550;52.230;5.194;2023-08-06T14:56:53;3.92;;;2.40;;
53646;SDS011;39550;52.230;5.194;2023-08-06T14:59:19;4.95;;;3.05;;
53646;SDS011;39550;52.230;5.194;2023-08-06T15:01:44;4.32;;;2.60;;
53646;SDS011;39550;52.230;5.194;2023-08-06T15:04:10;4.13;;;2.33;;
53646;SDS011;39550;52.230;5.194;2023-08-06T15:06:36;4.95;;;2.55;;
53646;SDS011;39550;52.230;5.194;2023-08-06T15:09:03;4.45;;;2.38;;